< < Back
Terminal Aerodrome Forecast


Current Version              Previous Versions:   1  2  3  4  5  6  7  8  9  

Terminal Aerodrome Forecast

239
FTUS42 KCHS 271737
TAFCHS
TAF
KCHS 271737Z 2718/2818 04008KT P6SM SCT035 BKN220
     FM280800 03011G16KT P6SM FEW040 BKN250
     FM281400 04013KT P6SM BKN040 OVC100=



Latest METAR

048
SAUS80 KWBC 280200
MTRCHS
METAR KCHS 280156Z 06004KT 10SM SCT200 05/02 A3043 RMK AO2 SLP306
T00500017


USA.gov is the U.S. government's official web portal to all federal, state and local government web resources and services.